sensor_id;sensor_type;location;lat;lon;timestamp;temperature;humidity
53534;DHT22;39421;53.204;6.568;2022-10-16T00:01:21;13.50;99.90
53534;DHT22;39421;53.204;6.568;2022-10-16T00:03:48;13.40;99.90
53534;DHT22;39421;53.204;6.568;2022-10-16T00:06:15;13.50;99.90
53534;DHT22;39421;53.204;6.568;2022-10-16T00:08:41;13.40;99.90
53534;DHT22;39421;53.204;6.568;2022-10-16T00:11:09;13.40;99.90
53534;DHT22;39421;53.204;6.568;2022-10-16T00:13:37;13.40;99.90
53534;DHT22;39421;53.204;6.568;2022-10-16T00:16:04;13.40;99.90
53534;DHT22;39421;53.204;6.568;2022-10-16T00:18:30;13.40;99.90
53534;DHT22;39421;53.204;6.568;2022-10-16T00:23:30;13.40;99.90
53534;DHT22;39421;53.204;6.568;2022-10-16T00:25:57;13.40;99.90
53534;DHT22;39421;53.204;6.568;2022-10-16T00:28:24;13.40;99.90
53534;DHT22;39421;53.204;6.568;2022-10-16T00:30:49;13.40;99.90
53534;DHT22;39421;53.204;6.568;2022-10-16T00:33:15;13.40;99.90
53534;DHT22;39421;53.204;6.568;2022-10-16T00:35:41;13.40;99.90
53534;DHT22;39421;53.204;6.568;2022-10-16T00:38:06;13.40;99.90
53534;DHT22;39421;53.204;6.568;2022-10-16T00:40:32;13.40;99.90
53534;DHT22;39421;53.204;6.568;2022-10-16T00:42:58;13.40;99.90
53534;DHT22;39421;53.204;6.568;2022-10-16T00:45:24;13.40;99.90
53534;DHT22;39421;53.204;6.568;2022-10-16T00:47:51;13.40;99.90
53534;DHT22;39421;53.204;6.568;2022-10-16T00:50:30;13.40;99.90
53534;DHT22;39421;53.204;6.568;2022-10-16T00:52:57;13.40;99.90
53534;DHT22;39421;53.204;6.568;2022-10-16T00:55:24;13.40;99.90
53534;DHT22;39421;53.204;6.568;2022-10-16T00:57:51;13.40;99.90
53534;DHT22;39421;53.204;6.568;2022-10-16T01:00:21;13.50;99.90
53534;DHT22;39421;53.204;6.568;2022-10-16T01:02:59;13.50;99.90
53534;DHT22;39421;53.204;6.568;2022-10-16T01:05:47;13.50;99.90
53534;DHT22;39421;53.204;6.568;2022-10-16T01:08:24;13.50;99.90
53534;DHT22;39421;53.204;6.568;2022-10-16T01:11:16;13.50;99.90
53534;DHT22;39421;53.204;6.568;2022-10-16T01:13:46;13.50;99.90
53534;DHT22;39421;53.204;6.568;2022-10-16T01:16:29;13.60;99.90
53534;DHT22;39421;53.204;6.568;2022-10-16T01:19:12;13.60;99.90
53534;DHT22;39421;53.204;6.568;2022-10-16T01:21:42;13.60;99.90
53534;DHT22;39421;53.204;6.568;2022-10-16T01:24:37;13.60;99.90
53534;DHT22;39421;53.204;6.568;2022-10-16T01:30:26;13.60;99.90
53534;DHT22;39421;53.204;6.568;2022-10-16T01:32:59;13.60;99.90
53534;DHT22;39421;53.204;6.568;2022-10-16T01:35:36;13.60;99.90
53534;DHT22;39421;53.204;6.568;2022-10-16T01:38:09;13.60;99.90
53534;DHT22;39421;53.204;6.568;2022-10-16T01:40:39;13.60;99.90
53534;DHT22;39421;53.204;6.568;2022-10-16T01:43:14;13.60;99.90
53534;DHT22;39421;53.204;6.568;2022-10-16T01:45:41;13.70;99.90
53534;DHT22;39421;53.204;6.568;2022-10-16T01:48:07;13.60;99.90
53534;DHT22;39421;53.204;6.568;2022-10-16T01:50:38;13.70;99.90
53534;DHT22;39421;53.204;6.568;2022-10-16T01:53:06;13.60;99.90
53534;DHT22;39421;53.204;6.568;2022-10-16T01:55:38;13.60;99.90
53534;DHT22;39421;53.204;6.568;2022-10-16T01:58:08;13.60;99.90
53534;DHT22;39421;53.204;6.568;2022-10-16T02:00:37;13.60;99.90
53534;DHT22;39421;53.204;6.568;2022-10-16T02:03:04;13.60;99.90
53534;DHT22;39421;53.204;6.568;2022-10-16T02:05:38;13.60;99.90
53534;DHT22;39421;53.204;6.568;2022-10-16T02:08:06;13.60;99.90
53534;DHT22;39421;53.204;6.568;2022-10-16T02:10:32;13.60;99.90
53534;DHT22;39421;53.204;6.568;2022-10-16T02:15:27;13.70;99.90
53534;DHT22;39421;53.204;6.568;2022-10-16T02:17:53;13.70;99.90
53534;DHT22;39421;53.204;6.568;2022-10-16T02:20:24;13.60;99.90
53534;DHT22;39421;53.204;6.568;2022-10-16T02:22:51;13.70;99.90
53534;DHT22;39421;53.204;6.568;2022-10-16T02:25:22;13.70;99.90
53534;DHT22;39421;53.204;6.568;2022-10-16T02:28:06;13.70;99.90
53534;DHT22;39421;53.204;6.568;2022-10-16T02:30:40;13.70;99.90
53534;DHT22;39421;53.204;6.568;2022-10-16T02:33:10;13.70;99.90
53534;DHT22;39421;53.204;6.568;2022-10-16T02:35:36;13.70;99.90
53534;DHT22;39421;53.204;6.568;2022-10-16T02:38:03;13.70;99.90
53534;DHT22;39421;53.204;6.568;2022-10-16T02:40:30;13.70;99.90
53534;DHT22;39421;53.204;6.568;2022-10-16T02:42:56;13.70;99.90
53534;DHT22;39421;53.204;6.568;2022-10-16T02:45:22;13.70;99.90
53534;DHT22;39421;53.204;6.568;2022-10-16T02:47:48;13.70;99.90
53534;DHT22;39421;53.204;6.568;2022-10-16T02:50:14;13.70;99.90
53534;DHT22;39421;53.204;6.568;2022-10-16T02:52:40;13.70;99.90
53534;DHT22;39421;53.204;6.568;2022-10-16T02:55:06;13.70;99.90
53534;DHT22;39421;53.204;6.568;2022-10-16T02:57:31;13.70;99.90
53534;DHT22;39421;53.204;6.568;2022-10-16T02:59:57;13.70;99.90
53534;DHT22;39421;53.204;6.568;2022-10-16T03:02:23;13.70;99.90
53534;DHT22;39421;53.204;6.568;2022-10-16T03:04:49;13.80;99.90
53534;DHT22;39421;53.204;6.568;2022-10-16T03:07:14;13.80;99.90
53534;DHT22;39421;53.204;6.568;2022-10-16T03:09:40;13.80;99.90
53534;DHT22;39421;53.204;6.568;2022-10-16T03:12:09;13.80;99.90
53534;DHT22;39421;53.204;6.568;2022-10-16T03:14:37;13.80;99.90
53534;DHT22;39421;53.204;6.568;2022-10-16T03:17:02;13.90;99.90
53534;DHT22;39421;53.204;6.568;2022-10-16T03:19:28;13.80;99.90
53534;DHT22;39421;53.204;6.568;2022-10-16T03:21:54;13.90;99.90
53534;DHT22;39421;53.204;6.568;2022-10-16T03:24:19;13.90;99.90
53534;DHT22;39421;53.204;6.568;2022-10-16T03:26:45;13.90;99.90
53534;DHT22;39421;53.204;6.568;2022-10-16T03:29:11;13.90;99.90
53534;DHT22;39421;53.204;6.568;2022-10-16T03:31:36;13.90;99.90
53534;DHT22;39421;53.204;6.568;2022-10-16T03:34:02;13.90;99.90
53534;DHT22;39421;53.204;6.568;2022-10-16T03:36:28;13.90;99.90
53534;DHT22;39421;53.204;6.568;2022-10-16T03:38:53;13.90;99.90
53534;DHT22;39421;53.204;6.568;2022-10-16T03:41:19;13.90;99.90
53534;DHT22;39421;53.204;6.568;2022-10-16T03:43:44;13.90;99.90
53534;DHT22;39421;53.204;6.568;2022-10-16T03:46:10;13.90;99.90
53534;DHT22;39421;53.204;6.568;2022-10-16T03:48:36;13.80;99.90
53534;DHT22;39421;53.204;6.568;2022-10-16T03:51:02;13.80;99.90
53534;DHT22;39421;53.204;6.568;2022-10-16T03:53:27;13.70;99.90
53534;DHT22;39421;53.204;6.568;2022-10-16T03:55:53;13.70;99.90
53534;DHT22;39421;53.204;6.568;2022-10-16T03:58:19;13.70;99.90
53534;DHT22;39421;53.204;6.568;2022-10-16T04:00:46;13.70;99.90
53534;DHT22;39421;53.204;6.568;2022-10-16T04:03:13;13.70;99.90
53534;DHT22;39421;53.204;6.568;2022-10-16T04:05:38;13.70;99.90
53534;DHT22;39421;53.204;6.568;2022-10-16T04:08:04;13.70;99.90
53534;DHT22;39421;53.204;6.568;2022-10-16T04:10:30;13.70;99.90
53534;DHT22;39421;53.204;6.568;2022-10-16T04:12:56;13.60;99.90
53534;DHT22;39421;53.204;6.568;2022-10-16T04:15:25;13.60;99.90
53534;DHT22;39421;53.204;6.568;2022-10-16T04:17:51;13.50;99.90
53534;DHT22;39421;53.204;6.568;2022-10-16T04:20:17;13.60;99.90
53534;DHT22;39421;53.204;6.568;2022-10-16T04:22:43;13.50;99.90
53534;DHT22;39421;53.204;6.568;2022-10-16T04:25:09;13.50;99.90
53534;DHT22;39421;53.204;6.568;2022-10-16T04:27:36;13.50;99.90
53534;DHT22;39421;53.204;6.568;2022-10-16T04:30:03;13.50;99.90
53534;DHT22;39421;53.204;6.568;2022-10-16T04:32:28;13.50;99.90
53534;DHT22;39421;53.204;6.568;2022-10-16T04:34:54;13.40;99.90
53534;DHT22;39421;53.204;6.568;2022-10-16T04:37:26;13.40;99.90
53534;DHT22;39421;53.204;6.568;2022-10-16T04:39:53;13.40;99.90
53534;DHT22;39421;53.204;6.568;2022-10-16T04:42:19;13.40;99.90
53534;DHT22;39421;53.204;6.568;2022-10-16T04:44:44;13.50;99.90
53534;DHT22;39421;53.204;6.568;2022-10-16T04:47:10;13.50;99.90
53534;DHT22;39421;53.204;6.568;2022-10-16T04:49:36;13.40;99.90
53534;DHT22;39421;53.204;6.568;2022-10-16T04:52:03;13.50;99.90
53534;DHT22;39421;53.204;6.568;2022-10-16T04:54:28;13.50;99.90
53534;DHT22;39421;53.204;6.568;2022-10-16T04:56:54;13.50;99.90
53534;DHT22;39421;53.204;6.568;2022-10-16T04:59:20;13.50;99.90
53534;DHT22;39421;53.204;6.568;2022-10-16T05:01:46;13.50;99.90
53534;DHT22;39421;53.204;6.568;2022-10-16T05:04:12;13.50;99.90
53534;DHT22;39421;53.204;6.568;2022-10-16T05:06:38;13.50;99.90
53534;DHT22;39421;53.204;6.568;2022-10-16T05:09:05;13.50;99.90
53534;DHT22;39421;53.204;6.568;2022-10-16T05:11:31;13.40;99.90
53534;DHT22;39421;53.204;6.568;2022-10-16T05:13:56;13.40;99.90
53534;DHT22;39421;53.204;6.568;2022-10-16T05:16:22;13.40;99.90
53534;DHT22;39421;53.204;6.568;2022-10-16T05:18:48;13.40;99.90
53534;DHT22;39421;53.204;6.568;2022-10-16T05:21:13;13.40;99.90
53534;DHT22;39421;53.204;6.568;2022-10-16T05:23:39;13.40;99.90
53534;DHT22;39421;53.204;6.568;2022-10-16T05:26:05;13.40;99.90
53534;DHT22;39421;53.204;6.568;2022-10-16T05:28:31;13.40;99.90
53534;DHT22;39421;53.204;6.568;2022-10-16T05:30:57;13.40;99.90
53534;DHT22;39421;53.204;6.568;2022-10-16T05:33:24;13.40;99.90
53534;DHT22;39421;53.204;6.568;2022-10-16T05:35:50;13.30;99.90
53534;DHT22;39421;53.204;6.568;2022-10-16T05:38:17;13.40;99.90
53534;DHT22;39421;53.204;6.568;2022-10-16T05:40:43;13.30;99.90
53534;DHT22;39421;53.204;6.568;2022-10-16T05:43:09;13.30;99.90
53534;DHT22;39421;53.204;6.568;2022-10-16T05:45:35;13.30;99.90
53534;DHT22;39421;53.204;6.568;2022-10-16T05:48:00;13.30;99.90
53534;DHT22;39421;53.204;6.568;2022-10-16T05:50:27;13.30;99.90
53534;DHT22;39421;53.204;6.568;2022-10-16T05:52:52;13.30;99.90
53534;DHT22;39421;53.204;6.568;2022-10-16T05:55:18;13.40;99.90
53534;DHT22;39421;53.204;6.568;2022-10-16T05:57:44;13.30;99.90
53534;DHT22;39421;53.204;6.568;2022-10-16T06:00:10;13.30;99.90
53534;DHT22;39421;53.204;6.568;2022-10-16T06:02:36;13.40;99.90
53534;DHT22;39421;53.204;6.568;2022-10-16T06:05:01;13.40;99.90
53534;DHT22;39421;53.204;6.568;2022-10-16T06:07:27;13.40;99.90
53534;DHT22;39421;53.204;6.568;2022-10-16T06:09:53;13.40;99.90
53534;DHT22;39421;53.204;6.568;2022-10-16T06:12:19;13.40;99.90
53534;DHT22;39421;53.204;6.568;2022-10-16T06:14:45;13.40;99.90
53534;DHT22;39421;53.204;6.568;2022-10-16T06:17:13;13.40;99.90
53534;DHT22;39421;53.204;6.568;2022-10-16T06:19:39;13.40;99.90
53534;DHT22;39421;53.204;6.568;2022-10-16T06:22:05;13.40;99.90
53534;DHT22;39421;53.204;6.568;2022-10-16T06:24:31;13.40;99.90
53534;DHT22;39421;53.204;6.568;2022-10-16T06:26:57;13.40;99.90
53534;DHT22;39421;53.204;6.568;2022-10-16T06:29:22;13.40;99.90
53534;DHT22;39421;53.204;6.568;2022-10-16T06:31:48;13.40;99.90
53534;DHT22;39421;53.204;6.568;2022-10-16T06:34:14;13.40;99.90
53534;DHT22;39421;53.204;6.568;2022-10-16T06:36:39;13.50;99.90
53534;DHT22;39421;53.204;6.568;2022-10-16T06:39:06;13.50;99.90
53534;DHT22;39421;53.204;6.568;2022-10-16T06:41:35;13.50;99.90
53534;DHT22;39421;53.204;6.568;2022-10-16T06:44:01;13.50;99.90
53534;DHT22;39421;53.204;6.568;2022-10-16T06:46:30;13.50;99.90
53534;DHT22;39421;53.204;6.568;2022-10-16T06:48:56;13.60;99.90
53534;DHT22;39421;53.204;6.568;2022-10-16T06:51:23;13.60;99.90
53534;DHT22;39421;53.204;6.568;2022-10-16T06:53:51;13.70;99.90
53534;DHT22;39421;53.204;6.568;2022-10-16T06:56:19;13.70;99.90
53534;DHT22;39421;53.204;6.568;2022-10-16T06:58:45;13.80;99.90
53534;DHT22;39421;53.204;6.568;2022-10-16T07:01:12;13.70;99.90
53534;DHT22;39421;53.204;6.568;2022-10-16T07:03:40;13.80;99.90
53534;DHT22;39421;53.204;6.568;2022-10-16T07:06:07;13.80;99.90
53534;DHT22;39421;53.204;6.568;2022-10-16T07:08:34;13.70;99.90
53534;DHT22;39421;53.204;6.568;2022-10-16T07:11:01;13.70;99.90
53534;DHT22;39421;53.204;6.568;2022-10-16T07:13:27;13.70;99.90
53534;DHT22;39421;53.204;6.568;2022-10-16T07:15:53;13.70;99.90
53534;DHT22;39421;53.204;6.568;2022-10-16T07:18:18;13.70;99.90
53534;DHT22;39421;53.204;6.568;2022-10-16T07:20:44;13.70;99.90
53534;DHT22;39421;53.204;6.568;2022-10-16T07:23:10;13.70;99.90
53534;DHT22;39421;53.204;6.568;2022-10-16T07:25:35;13.70;99.90
53534;DHT22;39421;53.204;6.568;2022-10-16T07:28:01;13.70;99.90
53534;DHT22;39421;53.204;6.568;2022-10-16T07:30:27;13.70;99.90
53534;DHT22;39421;53.204;6.568;2022-10-16T07:32:52;13.70;99.90
53534;DHT22;39421;53.204;6.568;2022-10-16T07:35:18;13.80;99.90
53534;DHT22;39421;53.204;6.568;2022-10-16T07:37:45;13.70;99.90
53534;DHT22;39421;53.204;6.568;2022-10-16T07:40:11;13.70;99.90
53534;DHT22;39421;53.204;6.568;2022-10-16T07:42:37;13.80;99.90
53534;DHT22;39421;53.204;6.568;2022-10-16T07:45:03;13.80;99.90
53534;DHT22;39421;53.204;6.568;2022-10-16T07:47:29;13.80;99.90
53534;DHT22;39421;53.204;6.568;2022-10-16T07:49:54;13.80;99.90
53534;DHT22;39421;53.204;6.568;2022-10-16T07:52:20;13.70;99.90
53534;DHT22;39421;53.204;6.568;2022-10-16T07:54:45;13.70;99.90
53534;DHT22;39421;53.204;6.568;2022-10-16T07:57:11;13.70;99.90
53534;DHT22;39421;53.204;6.568;2022-10-16T07:59:37;13.70;99.90
53534;DHT22;39421;53.204;6.568;2022-10-16T08:02:02;13.70;99.90
53534;DHT22;39421;53.204;6.568;2022-10-16T08:04:28;13.70;99.90
53534;DHT22;39421;53.204;6.568;2022-10-16T08:06:54;13.70;99.90
53534;DHT22;39421;53.204;6.568;2022-10-16T08:09:20;13.80;99.90
53534;DHT22;39421;53.204;6.568;2022-10-16T08:11:45;13.80;99.90
53534;DHT22;39421;53.204;6.568;2022-10-16T08:14:11;14.00;99.90
53534;DHT22;39421;53.204;6.568;2022-10-16T08:16:37;14.10;99.90
53534;DHT22;39421;53.204;6.568;2022-10-16T08:19:02;14.10;99.90
53534;DHT22;39421;53.204;6.568;2022-10-16T08:21:28;14.30;99.90
53534;DHT22;39421;53.204;6.568;2022-10-16T08:23:54;14.40;99.90
53534;DHT22;39421;53.204;6.568;2022-10-16T08:26:20;14.60;99.90
53534;DHT22;39421;53.204;6.568;2022-10-16T08:28:49;14.70;99.90
53534;DHT22;39421;53.204;6.568;2022-10-16T08:31:15;14.80;99.90
53534;DHT22;39421;53.204;6.568;2022-10-16T08:33:43;15.00;99.90
53534;DHT22;39421;53.204;6.568;2022-10-16T08:36:11;15.10;99.90
53534;DHT22;39421;53.204;6.568;2022-10-16T08:38:37;15.20;99.90
53534;DHT22;39421;53.204;6.568;2022-10-16T08:44:52;15.40;99.90
53534;DHT22;39421;53.204;6.568;2022-10-16T08:47:45;15.60;99.90
53534;DHT22;39421;53.204;6.568;2022-10-16T08:50:25;15.90;99.90
53534;DHT22;39421;53.204;6.568;2022-10-16T08:52:52;16.00;99.90
53534;DHT22;39421;53.204;6.568;2022-10-16T08:57:53;16.00;99.90
53534;DHT22;39421;53.204;6.568;2022-10-16T09:00:19;16.10;99.90
53534;DHT22;39421;53.204;6.568;2022-10-16T09:02:52;16.00;99.90
53534;DHT22;39421;53.204;6.568;2022-10-16T09:16:56;16.40;99.90
53534;DHT22;39421;53.204;6.568;2022-10-16T09:21:57;16.30;99.90
53534;DHT22;39421;53.204;6.568;2022-10-16T09:24:26;16.30;99.90
53534;DHT22;39421;53.204;6.568;2022-10-16T09:26:52;16.30;99.90
53534;DHT22;39421;53.204;6.568;2022-10-16T09:29:19;16.40;99.90
53534;DHT22;39421;53.204;6.568;2022-10-16T09:31:46;16.60;99.90
53534;DHT22;39421;53.204;6.568;2022-10-16T09:36:51;16.70;99.90
53534;DHT22;39421;53.204;6.568;2022-10-16T09:39:17;16.90;99.90
53534;DHT22;39421;53.204;6.568;2022-10-16T09:41:44;17.00;99.90
53534;DHT22;39421;53.204;6.568;2022-10-16T09:44:27;16.80;99.90
53534;DHT22;39421;53.204;6.568;2022-10-16T09:47:15;17.20;99.90
53534;DHT22;39421;53.204;6.568;2022-10-16T09:50:00;18.00;99.90
53534;DHT22;39421;53.204;6.568;2022-10-16T09:52:30;18.00;99.90
53534;DHT22;39421;53.204;6.568;2022-10-16T09:54:58;17.40;99.90
53534;DHT22;39421;53.204;6.568;2022-10-16T09:57:25;17.10;99.90
53534;DHT22;39421;53.204;6.568;2022-10-16T09:59:53;17.00;99.90
53534;DHT22;39421;53.204;6.568;2022-10-16T10:02:34;17.00;99.90
53534;DHT22;39421;53.204;6.568;2022-10-16T10:05:01;17.10;99.90
53534;DHT22;39421;53.204;6.568;2022-10-16T10:07:31;17.20;99.90
53534;DHT22;39421;53.204;6.568;2022-10-16T10:10:02;17.10;99.90
53534;DHT22;39421;53.204;6.568;2022-10-16T10:12:30;17.10;99.90
53534;DHT22;39421;53.204;6.568;2022-10-16T10:15:04;17.10;99.90
53534;DHT22;39421;53.204;6.568;2022-10-16T10:17:30;17.30;99.90
53534;DHT22;39421;53.204;6.568;2022-10-16T10:20:00;17.40;99.90
53534;DHT22;39421;53.204;6.568;2022-10-16T10:22:40;17.70;99.90
53534;DHT22;39421;53.204;6.568;2022-10-16T10:30:34;17.80;99.90
53534;DHT22;39421;53.204;6.568;2022-10-16T10:33:41;17.90;99.90
53534;DHT22;39421;53.204;6.568;2022-10-16T10:53:18;18.50;99.90
53534;DHT22;39421;53.204;6.568;2022-10-16T10:55:58;18.40;99.90
53534;DHT22;39421;53.204;6.568;2022-10-16T11:02:28;18.30;99.90
53534;DHT22;39421;53.204;6.568;2022-10-16T11:07:34;18.40;99.90
53534;DHT22;39421;53.204;6.568;2022-10-16T11:10:12;18.40;99.90
53534;DHT22;39421;53.204;6.568;2022-10-16T11:12:46;18.30;99.90
53534;DHT22;39421;53.204;6.568;2022-10-16T11:15:27;18.40;99.90
53534;DHT22;39421;53.204;6.568;2022-10-16T11:18:06;18.60;99.90
53534;DHT22;39421;53.204;6.568;2022-10-16T11:20:54;18.70;99.90
53534;DHT22;39421;53.204;6.568;2022-10-16T11:23:29;18.70;99.90
53534;DHT22;39421;53.204;6.568;2022-10-16T11:26:13;18.70;99.90
53534;DHT22;39421;53.204;6.568;2022-10-16T11:28:49;18.70;99.90
53534;DHT22;39421;53.204;6.568;2022-10-16T11:31:17;18.80;99.90
53534;DHT22;39421;53.204;6.568;2022-10-16T11:33:49;18.80;99.90
53534;DHT22;39421;53.204;6.568;2022-10-16T11:36:56;18.80;99.90
53534;DHT22;39421;53.204;6.568;2022-10-16T11:39:32;19.00;99.90
53534;DHT22;39421;53.204;6.568;2022-10-16T11:42:19;19.00;99.90
53534;DHT22;39421;53.204;6.568;2022-10-16T11:48:02;19.30;99.90
53534;DHT22;39421;53.204;6.568;2022-10-16T11:50:42;19.40;99.90
53534;DHT22;39421;53.204;6.568;2022-10-16T11:55:40;19.50;99.90
53534;DHT22;39421;53.204;6.568;2022-10-16T12:03:40;19.40;99.90
53534;DHT22;39421;53.204;6.568;2022-10-16T12:06:23;19.50;99.90
53534;DHT22;39421;53.204;6.568;2022-10-16T12:08:53;19.50;99.90
53534;DHT22;39421;53.204;6.568;2022-10-16T12:13:48;19.90;99.90
53534;DHT22;39421;53.204;6.568;2022-10-16T12:18:41;20.00;99.90
53534;DHT22;39421;53.204;6.568;2022-10-16T12:21:08;19.80;99.90
53534;DHT22;39421;53.204;6.568;2022-10-16T12:23:46;19.50;99.90
53534;DHT22;39421;53.204;6.568;2022-10-16T12:26:13;19.30;99.90
53534;DHT22;39421;53.204;6.568;2022-10-16T12:28:39;19.20;99.90
53534;DHT22;39421;53.204;6.568;2022-10-16T12:31:07;19.00;99.90
53534;DHT22;39421;53.204;6.568;2022-10-16T12:33:36;19.00;99.90
53534;DHT22;39421;53.204;6.568;2022-10-16T12:36:13;18.90;99.90
53534;DHT22;39421;53.204;6.568;2022-10-16T12:38:49;18.70;99.90
53534;DHT22;39421;53.204;6.568;2022-10-16T12:41:33;18.50;99.90
53534;DHT22;39421;53.204;6.568;2022-10-16T12:44:01;18.60;99.90
53534;DHT22;39421;53.204;6.568;2022-10-16T12:51:54;18.90;99.90
53534;DHT22;39421;53.204;6.568;2022-10-16T12:54:37;19.00;99.90
53534;DHT22;39421;53.204;6.568;2022-10-16T13:06:47;18.80;99.90
53534;DHT22;39421;53.204;6.568;2022-10-16T13:11:36;18.90;99.90
53534;DHT22;39421;53.204;6.568;2022-10-16T13:14:15;18.90;99.90
53534;DHT22;39421;53.204;6.568;2022-10-16T13:25:22;18.80;99.90
53534;DHT22;39421;53.204;6.568;2022-10-16T13:28:04;18.80;99.90
53534;DHT22;39421;53.204;6.568;2022-10-16T13:30:40;18.90;99.90
53534;DHT22;39421;53.204;6.568;2022-10-16T13:33:14;18.90;99.90
53534;DHT22;39421;53.204;6.568;2022-10-16T13:35:50;18.90;99.90
53534;DHT22;39421;53.204;6.568;2022-10-16T13:38:19;18.90;99.90
53534;DHT22;39421;53.204;6.568;2022-10-16T13:41:06;18.80;99.90
53534;DHT22;39421;53.204;6.568;2022-10-16T13:43:34;18.70;99.90
53534;DHT22;39421;53.204;6.568;2022-10-16T13:46:12;18.60;99.90
53534;DHT22;39421;53.204;6.568;2022-10-16T13:48:38;18.50;99.90
53534;DHT22;39421;53.204;6.568;2022-10-16T13:51:10;18.50;99.90
53534;DHT22;39421;53.204;6.568;2022-10-16T13:53:37;18.50;99.90
53534;DHT22;39421;53.204;6.568;2022-10-16T13:56:05;18.50;99.90
53534;DHT22;39421;53.204;6.568;2022-10-16T13:58:31;18.50;99.90
53534;DHT22;39421;53.204;6.568;2022-10-16T14:01:17;18.50;99.90
53534;DHT22;39421;53.204;6.568;2022-10-16T14:03:44;18.50;99.90
53534;DHT22;39421;53.204;6.568;2022-10-16T14:06:16;18.40;99.90
53534;DHT22;39421;53.204;6.568;2022-10-16T14:08:45;18.50;99.90
53534;DHT22;39421;53.204;6.568;2022-10-16T14:11:23;18.60;99.90
53534;DHT22;39421;53.204;6.568;2022-10-16T14:13:50;18.60;99.90
53534;DHT22;39421;53.204;6.568;2022-10-16T14:16:22;18.50;99.90
53534;DHT22;39421;53.204;6.568;2022-10-16T14:19:00;18.50;99.90
53534;DHT22;39421;53.204;6.568;2022-10-16T14:21:27;18.40;99.90
53534;DHT22;39421;53.204;6.568;2022-10-16T14:23:54;18.40;99.90
53534;DHT22;39421;53.204;6.568;2022-10-16T14:26:22;18.30;99.90
53534;DHT22;39421;53.204;6.568;2022-10-16T14:29:00;18.30;99.90
53534;DHT22;39421;53.204;6.568;2022-10-16T14:31:31;18.30;99.90
53534;DHT22;39421;53.204;6.568;2022-10-16T14:33:58;18.20;99.90
53534;DHT22;39421;53.204;6.568;2022-10-16T14:36:25;18.20;99.90
53534;DHT22;39421;53.204;6.568;2022-10-16T14:39:02;18.20;99.90
53534;DHT22;39421;53.204;6.568;2022-10-16T14:41:30;18.20;99.90
53534;DHT22;39421;53.204;6.568;2022-10-16T14:44:02;18.10;99.90
53534;DHT22;39421;53.204;6.568;2022-10-16T14:46:38;18.10;99.90
53534;DHT22;39421;53.204;6.568;2022-10-16T14:51:36;18.00;99.90
53534;DHT22;39421;53.204;6.568;2022-10-16T14:54:03;18.00;99.90
53534;DHT22;39421;53.204;6.568;2022-10-16T14:56:48;18.00;99.90
53534;DHT22;39421;53.204;6.568;2022-10-16T14:59:41;18.00;99.90
53534;DHT22;39421;53.204;6.568;2022-10-16T15:02:28;17.90;99.90
53534;DHT22;39421;53.204;6.568;2022-10-16T15:04:55;17.90;99.90
53534;DHT22;39421;53.204;6.568;2022-10-16T15:07:21;17.80;99.90
53534;DHT22;39421;53.204;6.568;2022-10-16T15:09:47;17.80;99.90
53534;DHT22;39421;53.204;6.568;2022-10-16T15:12:13;17.70;99.90
53534;DHT22;39421;53.204;6.568;2022-10-16T15:14:38;17.70;99.90
53534;DHT22;39421;53.204;6.568;2022-10-16T15:17:04;17.70;99.90
53534;DHT22;39421;53.204;6.568;2022-10-16T15:19:30;17.60;99.90
53534;DHT22;39421;53.204;6.568;2022-10-16T15:21:56;17.50;99.90
53534;DHT22;39421;53.204;6.568;2022-10-16T15:24:22;17.50;99.90
53534;DHT22;39421;53.204;6.568;2022-10-16T15:26:47;17.50;99.90
53534;DHT22;39421;53.204;6.568;2022-10-16T15:29:15;17.60;99.90
53534;DHT22;39421;53.204;6.568;2022-10-16T15:31:41;17.50;99.90
53534;DHT22;39421;53.204;6.568;2022-10-16T15:34:12;17.50;99.90
53534;DHT22;39421;53.204;6.568;2022-10-16T15:36:38;17.40;99.90
53534;DHT22;39421;53.204;6.568;2022-10-16T15:39:11;17.40;99.90
53534;DHT22;39421;53.204;6.568;2022-10-16T15:41:41;17.30;99.90
53534;DHT22;39421;53.204;6.568;2022-10-16T15:44:07;17.20;99.90
53534;DHT22;39421;53.204;6.568;2022-10-16T15:46:33;17.20;99.90
53534;DHT22;39421;53.204;6.568;2022-10-16T15:49:00;17.10;99.90
53534;DHT22;39421;53.204;6.568;2022-10-16T15:51:26;17.10;99.90
53534;DHT22;39421;53.204;6.568;2022-10-16T15:53:58;17.10;99.90
53534;DHT22;39421;53.204;6.568;2022-10-16T15:56:27;17.10;99.90
53534;DHT22;39421;53.204;6.568;2022-10-16T15:58:54;17.10;99.90
53534;DHT22;39421;53.204;6.568;2022-10-16T16:01:20;17.10;99.90
53534;DHT22;39421;53.204;6.568;2022-10-16T16:03:46;17.00;99.90
53534;DHT22;39421;53.204;6.568;2022-10-16T16:06:14;17.00;99.90
53534;DHT22;39421;53.204;6.568;2022-10-16T16:08:39;17.00;99.90
53534;DHT22;39421;53.204;6.568;2022-10-16T16:11:13;17.00;99.90
53534;DHT22;39421;53.204;6.568;2022-10-16T16:13:39;16.90;99.90
53534;DHT22;39421;53.204;6.568;2022-10-16T16:16:10;16.80;99.90
53534;DHT22;39421;53.204;6.568;2022-10-16T16:18:36;16.80;99.90
53534;DHT22;39421;53.204;6.568;2022-10-16T16:21:02;16.70;99.90
53534;DHT22;39421;53.204;6.568;2022-10-16T16:23:28;16.70;99.90
53534;DHT22;39421;53.204;6.568;2022-10-16T16:28:32;16.50;99.90
53534;DHT22;39421;53.204;6.568;2022-10-16T16:30:58;16.50;99.90
53534;DHT22;39421;53.204;6.568;2022-10-16T16:33:23;16.60;99.90
53534;DHT22;39421;53.204;6.568;2022-10-16T16:35:49;16.60;99.90
53534;DHT22;39421;53.204;6.568;2022-10-16T16:38:15;16.70;99.90
53534;DHT22;39421;53.204;6.568;2022-10-16T16:40:44;16.80;99.90
53534;DHT22;39421;53.204;6.568;2022-10-16T16:43:09;16.90;99.90
53534;DHT22;39421;53.204;6.568;2022-10-16T16:45:35;16.90;99.90
53534;DHT22;39421;53.204;6.568;2022-10-16T16:48:04;16.90;99.90
53534;DHT22;39421;53.204;6.568;2022-10-16T16:50:36;16.90;99.90
53534;DHT22;39421;53.204;6.568;2022-10-16T16:53:02;17.00;99.90
53534;DHT22;39421;53.204;6.568;2022-10-16T16:55:28;17.00;99.90
53534;DHT22;39421;53.204;6.568;2022-10-16T16:57:54;17.00;99.90
53534;DHT22;39421;53.204;6.568;2022-10-16T17:00:20;17.00;99.90
53534;DHT22;39421;53.204;6.568;2022-10-16T17:02:48;17.10;99.90
53534;DHT22;39421;53.204;6.568;2022-10-16T17:05:14;17.10;99.90
53534;DHT22;39421;53.204;6.568;2022-10-16T17:07:40;17.10;99.90
53534;DHT22;39421;53.204;6.568;2022-10-16T17:10:07;17.10;99.90
53534;DHT22;39421;53.204;6.568;2022-10-16T17:12:33;17.10;99.90
53534;DHT22;39421;53.204;6.568;2022-10-16T17:14:59;17.10;99.90
53534;DHT22;39421;53.204;6.568;2022-10-16T17:17:25;17.00;99.90
53534;DHT22;39421;53.204;6.568;2022-10-16T17:19:51;17.10;99.90
53534;DHT22;39421;53.204;6.568;2022-10-16T17:22:18;17.00;99.90
53534;DHT22;39421;53.204;6.568;2022-10-16T17:24:47;17.00;99.90
53534;DHT22;39421;53.204;6.568;2022-10-16T17:27:15;17.00;99.90
53534;DHT22;39421;53.204;6.568;2022-10-16T17:29:41;16.90;99.90